Time;durP1;ratioP1;P1;durP2;ratioP2;P2;SDS_P1;SDS_P2;PMS_P1;PMS_P2;Temp;Humidity;BMP_temperature;BMP_pressure;BME280_temperature;BME280_humidity;BME280_pressure;Samples;Min_cycle;Max_cycle;Signal;HPM_P1;HPM_P2
2023/06/28 00:02:10;;;;;;;;;;;;;;;;;;5092246;27;19934;-69
2023/06/28 00:04:36;;;;;;;;;;;;;;;;;;5091001;28;19912;-69
2023/06/28 00:07:02;;;;;;;;;;;;;;;;;;5091317;28;20320;-69
2023/06/28 00:11:13;;;;;;;;;;;;;;;;;;5111860;27;20372;-69
2023/06/28 00:21:38;;;;;;;;;;;;;;;;;;5091851;27;19912;-70
2023/06/28 00:24:04;;;;;;;;;;;;;;;;;;5091327;28;20003;-70
2023/06/28 00:26:30;;;;;;;;;;;;;;;;;;5090899;28;19954;-70
2023/06/28 00:28:56;;;;;;;;;;;;;;;;;;5089949;28;19959;-70
2023/06/28 00:31:22;;;;;;;;;;;;;;;;;;5091247;28;19915;-70
2023/06/28 00:36:53;;;;;;;;;;;;;;;;;;5174239;27;19915;-69
2023/06/28 00:43:09;;;;;;;;;;;;;;;;;;5112166;27;19916;-69
2023/06/28 00:45:35;;;;;;;;;;;;;;;;;;5111879;28;19912;-69
2023/06/28 00:48:23;;;;;;;;;;;;;;;;;;5112440;27;19916;-70
2023/06/28 00:51:59;;;;;;;;;;;;;;;;;;5091772;27;19916;-70
2023/06/28 00:54:46;;;;;;;;;;;;;;;;;;5111428;27;19922;-69
2023/06/28 00:59:27;;;;;;;;;;;;;;;;;;5153326;27;19999;-69
2023/06/28 01:01:54;;;;;;;;;;;;;;;;;;5152500;27;20015;-69
2023/06/28 01:04:20;;;;;;;;;;;;;;;;;;5152812;27;19997;-69
2023/06/28 01:06:51;;;;;;;;;;;;;;;;;;5152613;27;19956;-69
2023/06/28 01:09:17;;;;;;;;;;;;;;;;;;5153042;27;19911;-70
2023/06/28 01:11:43;;;;;;;;;;;;;;;;;;5152788;27;19907;-69
2023/06/28 01:14:09;;;;;;;;;;;;;;;;;;5152260;27;19946;-69
2023/06/28 01:16:54;;;;;;;;;;;;;;;;;;5111827;27;19916;-69
2023/06/28 01:20:54;;;;;;;;;;;;;;;;;;5091771;27;19913;-69
2023/06/28 01:23:20;;;;;;;;;;;;;;;;;;5091442;28;19939;-69
2023/06/28 01:25:46;;;;;;;;;;;;;;;;;;5091354;28;20364;-69
2023/06/28 01:32:11;;;;;;;;;;;;;;;;;;5091671;27;20311;-69
2023/06/28 01:34:37;;;;;;;;;;;;;;;;;;5091418;28;20003;-69
2023/06/28 01:38:57;;;;;;;;;;;;;;;;;;5112565;27;19916;-69
2023/06/28 01:43:40;;;;;;;;;;;;;;;;;;5111596;27;19916;-70
2023/06/28 01:46:46;;;;;;;;;;;;;;;;;;5111915;27;19916;-70
2023/06/28 01:49:12;;;;;;;;;;;;;;;;;;5111349;28;20452;-69
2023/06/28 01:57:26;;;;;;;;;;;;;;;;;;5091309;27;19922;-68
2023/06/28 02:00:28;;;;;;;;;;;;;;;;;;5174076;27;19912;-69
2023/06/28 02:02:54;;;;;;;;;;;;;;;;;;5173765;27;19934;-69
2023/06/28 02:07:20;;;;;;;;;;;;;;;;;;5112125;27;19916;-69
2023/06/28 02:09:46;;;;;;;;;;;;;;;;;;5111762;28;20011;-69
2023/06/28 02:12:12;;;;;;;;;;;;;;;;;;5111317;28;19908;-69
2023/06/28 02:14:39;;;;;;;;;;;;;;;;;;5111637;28;19938;-69
2023/06/28 02:17:05;;;;;;;;;;;;;;;;;;5111250;28;20360;-69
2023/06/28 02:21:11;;;;;;;;;;;;;;;;;;5071172;28;19923;-69
2023/06/28 02:23:37;;;;;;;;;;;;;;;;;;5069934;28;20007;-69
2023/06/28 02:26:03;;;;;;;;;;;;;;;;;;5070731;28;19909;-69
2023/06/28 02:33:19;;;;;;;;;;;;;;;;;;5091233;27;19923;-69
2023/06/28 02:35:45;;;;;;;;;;;;;;;;;;5091458;28;20006;-69
2023/06/28 02:38:11;;;;;;;;;;;;;;;;;;5090916;28;19955;-69
2023/06/28 02:44:01;;;;;;;;;;;;;;;;;;5091524;27;20295;-69
2023/06/28 02:48:22;;;;;;;;;;;;;;;;;;5091544;27;20395;-70
2023/06/28 02:54:55;;;;;;;;;;;;;;;;;;5112305;27;19916;-69
2023/06/28 02:57:21;;;;;;;;;;;;;;;;;;5111780;28;20352;-69
2023/06/28 02:59:47;;;;;;;;;;;;;;;;;;5111328;28;19953;-69
2023/06/28 03:02:31;;;;;;;;;;;;;;;;;;5153538;27;20014;-69
2023/06/28 03:04:57;;;;;;;;;;;;;;;;;;5152986;27;20325;-69
2023/06/28 03:07:23;;;;;;;;;;;;;;;;;;5152524;27;19908;-69
2023/06/28 03:09:49;;;;;;;;;;;;;;;;;;5152842;27;19907;-69
2023/06/28 03:12:50;;;;;;;;;;;;;;;;;;5091953;27;19922;-69
2023/06/28 03:16:44;;;;;;;;;;;;;;;;;;5112045;27;19922;-69
2023/06/28 03:19:11;;;;;;;;;;;;;;;;;;5111770;28;19912;-69
2023/06/28 03:21:38;;;;;;;;;;;;;;;;;;5111290;28;19974;-69
2023/06/28 03:27:34;;;;;;;;;;;;;;;;;;5071399;28;19923;-70
2023/06/28 03:30:00;;;;;;;;;;;;;;;;;;5071154;28;19991;-69
2023/06/28 03:32:26;;;;;;;;;;;;;;;;;;5071155;28;19909;-69
2023/06/28 03:39:10;;;;;;;;;;;;;;;;;;5112638;27;19915;-69
2023/06/28 03:41:36;;;;;;;;;;;;;;;;;;5110103;28;20002;-69
2023/06/28 03:44:02;;;;;;;;;;;;;;;;;;5111638;28;20018;-69
2023/06/28 03:47:26;;;;;;;;;;;;;;;;;;5111806;27;19912;-69
2023/06/28 03:51:29;;;;;;;;;;;;;;;;;;5092048;27;20276;-69
2023/06/28 03:54:42;;;;;;;;;;;;;;;;;;5092012;28;20295;-69
2023/06/28 03:58:54;;;;;;;;;;;;;;;;;;5091623;27;20296;-69
2023/06/28 04:01:20;;;;;;;;;;;;;;;;;;5091356;28;19981;-69
2023/06/28 04:03:46;;;;;;;;;;;;;;;;;;5091145;28;19908;-69
2023/06/28 04:09:31;;;;;;;;;;;;;;;;;;5091596;27;19916;-69
2023/06/28 04:13:18;;;;;;;;;;;;;;;;;;5091798;27;19923;-69
2023/06/28 04:18:13;;;;;;;;;;;;;;;;;;5091232;28;19923;-69
2023/06/28 04:22:23;;;;;;;;;;;;;;;;;;5153210;27;20010;-69
2023/06/28 04:26:00;;;;;;;;;;;;;;;;;;5091173;27;20393;-69
2023/06/28 04:28:26;;;;;;;;;;;;;;;;;;5091366;28;19999;-69
2023/06/28 04:33:14;;;;;;;;;;;;;;;;;;5112313;27;19922;-69
2023/06/28 04:35:42;;;;;;;;;;;;;;;;;;5111772;28;19912;-69
2023/06/28 04:38:10;;;;;;;;;;;;;;;;;;5111586;28;19914;-69
2023/06/28 04:40:36;;;;;;;;;;;;;;;;;;5111842;28;19931;-69
2023/06/28 04:43:01;;;;;;;;;;;;;;;;;;5110360;28;20352;-69
2023/06/28 04:45:36;;;;;;;;;;;;;;;;;;5111575;28;20414;-69
2023/06/28 04:48:02;;;;;;;;;;;;;;;;;;5111824;28;19908;-69
2023/06/28 04:50:28;;;;;;;;;;;;;;;;;;5111460;28;20053;-69
2023/06/28 04:52:53;;;;;;;;;;;;;;;;;;5110951;28;20292;-69
2023/06/28 04:55:19;;;;;;;;;;;;;;;;;;5111482;28;20304;-69
2023/06/28 04:58:04;;;;;;;;;;;;;;;;;;5092032;27;19916;-69
2023/06/28 05:00:30;;;;;;;;;;;;;;;;;;5090985;28;20349;-69
2023/06/28 05:03:00;;;;;;;;;;;;;;;;;;5091340;28;20284;-69
2023/06/28 05:05:26;;;;;;;;;;;;;;;;;;5091239;28;19944;-69
2023/06/28 05:09:15;;;;;;;;;;;;;;;;;;5112527;27;19916;-69
2023/06/28 05:12:16;;;;;;;;;;;;;;;;;;5111938;27;19916;-69
2023/06/28 05:14:57;;;;;;;;;;;;;;;;;;5090782;27;19922;-68
2023/06/28 05:17:46;;;;;;;;;;;;;;;;;;5091906;27;20364;-70
2023/06/28 05:20:12;;;;;;;;;;;;;;;;;;5083662;28;19922;-69
2023/06/28 05:23:58;;;;;;;;;;;;;;;;;;5090156;28;19916;-68
2023/06/28 05:26:23;;;;;;;;;;;;;;;;;;5090815;28;19959;-68
2023/06/28 05:29:51;;;;;;;;;;;;;;;;;;5110615;27;19916;-68
2023/06/28 05:32:18;;;;;;;;;;;;;;;;;;5111156;28;20006;-68
2023/06/28 05:34:44;;;;;;;;;;;;;;;;;;5110959;28;19908;-69
2023/06/28 05:38:59;;;;;;;;;;;;;;;;;;5091036;27;19917;-70
2023/06/28 05:41:40;;;;;;;;;;;;;;;;;;5131615;27;19915;-70
2023/06/28 05:45:52;;;;;;;;;;;;;;;;;;5152375;27;20358;-70
2023/06/28 05:48:18;;;;;;;;;;;;;;;;;;5152217;27;19911;-70
2023/06/28 05:50:45;;;;;;;;;;;;;;;;;;5152266;27;19929;-71
2023/06/28 05:53:21;;;;;;;;;;;;;;;;;;5131752;27;20007;-70
2023/06/28 05:56:40;;;;;;;;;;;;;;;;;;5090815;27;20388;-70
2023/06/28 05:59:06;;;;;;;;;;;;;;;;;;5090547;28;19918;-71
2023/06/28 06:04:16;;;;;;;;;;;;;;;;;;5151982;27;19916;-70
2023/06/28 06:06:42;;;;;;;;;;;;;;;;;;5151795;27;20286;-70
2023/06/28 06:13:45;;;;;;;;;;;;;;;;;;5091167;27;19913;-70
2023/06/28 06:16:59;;;;;;;;;;;;;;;;;;5152684;27;19911;-71
2023/06/28 06:19:25;;;;;;;;;;;;;;;;;;5152830;27;19917;-71
2023/06/28 06:23:46;;;;;;;;;;;;;;;;;;5111421;27;20383;-70
2023/06/28 06:30:54;;;;;;;;;;;;;;;;;;5086041;27;19923;-70
2023/06/28 06:33:20;;;;;;;;;;;;;;;;;;5089061;28;19912;-68
2023/06/28 06:36:38;;;;;;;;;;;;;;;;;;5089427;27;19916;-71
2023/06/28 06:39:03;;;;;;;;;;;;;;;;;;5088663;28;19919;-71
2023/06/28 06:41:29;;;;;;;;;;;;;;;;;;5088850;28;19913;-71
2023/06/28 06:43:55;;;;;;;;;;;;;;;;;;5088932;28;19912;-69
2023/06/28 06:46:21;;;;;;;;;;;;;;;;;;5086565;28;19909;-70
2023/06/28 06:48:47;;;;;;;;;;;;;;;;;;5089613;28;19920;-69
2023/06/28 06:51:13;;;;;;;;;;;;;;;;;;5089521;28;19909;-69
2023/06/28 06:53:39;;;;;;;;;;;;;;;;;;5088896;28;20304;-67
2023/06/28 06:56:39;;;;;;;;;;;;;;;;;;5090046;27;19912;-67
2023/06/28 06:59:42;;;;;;;;;;;;;;;;;;5106435;27;19924;-70
2023/06/28 07:02:08;;;;;;;;;;;;;;;;;;5117019;28;19969;-69
2023/06/28 07:05:36;;;;;;;;;;;;;;;;;;5039234;27;2528460;-70
2023/06/28 07:08:02;;;;;;;;;;;;;;;;;;5128312;28;19937;-69
2023/06/28 07:10:28;;;;;;;;;;;;;;;;;;5117568;28;19916;-67
2023/06/28 07:12:54;;;;;;;;;;;;;;;;;;5106018;28;20264;-69
2023/06/28 07:15:20;;;;;;;;;;;;;;;;;;5110444;28;19912;-68
2023/06/28 07:19:28;;;;;;;;;;;;;;;;;;5083979;28;20307;-68
2023/06/28 07:21:54;;;;;;;;;;;;;;;;;;5066514;28;19995;-68
2023/06/28 07:24:20;;;;;;;;;;;;;;;;;;5067950;28;19993;-69
2023/06/28 07:27:41;;;;;;;;;;;;;;;;;;5113252;27;20107;-69
2023/06/28 07:30:06;;;;;;;;;;;;;;;;;;5066378;28;19912;-67
2023/06/28 07:32:32;;;;;;;;;;;;;;;;;;5066679;28;19913;-68
2023/06/28 07:36:38;;;;;;;;;;;;;;;;;;5089029;27;19927;-66
2023/06/28 07:39:05;;;;;;;;;;;;;;;;;;5090293;28;20003;-64
2023/06/28 07:41:31;;;;;;;;;;;;;;;;;;5089000;28;19959;-69
2023/06/28 07:43:57;;;;;;;;;;;;;;;;;;5101416;28;20327;-66
2023/06/28 07:46:23;;;;;;;;;;;;;;;;;;5069246;28;19909;-67
2023/06/28 07:48:49;;;;;;;;;;;;;;;;;;5079028;28;19948;-66
2023/06/28 07:51:15;;;;;;;;;;;;;;;;;;5084712;28;19919;-69
2023/06/28 07:53:42;;;;;;;;;;;;;;;;;;5083376;28;19912;-67
2023/06/28 07:57:42;;;;;;;;;;;;;;;;;;5081863;27;19925;-65
2023/06/28 08:00:10;;;;;;;;;;;;;;;;;;5081430;28;19966;-67
2023/06/28 08:02:36;;;;;;;;;;;;;;;;;;5085103;28;19930;-68
2023/06/28 08:05:02;;;;;;;;;;;;;;;;;;5085926;28;20376;-68
2023/06/28 08:07:29;;;;;;;;;;;;;;;;;;5095648;28;20364;-65
2023/06/28 08:09:55;;;;;;;;;;;;;;;;;;5086748;28;19913;-67
2023/06/28 08:12:21;;;;;;;;;;;;;;;;;;5087502;28;19934;-67
2023/06/28 08:14:47;;;;;;;;;;;;;;;;;;5087713;28;19947;-67
2023/06/28 08:17:13;;;;;;;;;;;;;;;;;;5094745;28;20014;-66
2023/06/28 08:19:38;;;;;;;;;;;;;;;;;;5093175;28;19916;-65
2023/06/28 08:22:04;;;;;;;;;;;;;;;;;;5089941;28;19938;-67
2023/06/28 08:24:30;;;;;;;;;;;;;;;;;;5088447;28;19957;-67
2023/06/28 08:26:56;;;;;;;;;;;;;;;;;;5103519;28;19965;-67
2023/06/28 08:29:22;;;;;;;;;;;;;;;;;;5099986;28;19916;-67
2023/06/28 08:31:49;;;;;;;;;;;;;;;;;;5089081;28;19912;-66
2023/06/28 08:34:17;;;;;;;;;;;;;;;;;;5088765;28;20002;-65
2023/06/28 08:36:43;;;;;;;;;;;;;;;;;;5100909;28;19965;-66
2023/06/28 08:39:09;;;;;;;;;;;;;;;;;;5088650;28;19913;-65
2023/06/28 08:41:35;;;;;;;;;;;;;;;;;;5089306;28;19950;-65
2023/06/28 08:44:02;;;;;;;;;;;;;;;;;;5087555;28;19912;-65
2023/06/28 08:46:29;;;;;;;;;;;;;;;;;;5095196;28;20053;-65
2023/06/28 08:48:55;;;;;;;;;;;;;;;;;;5091046;28;19921;-66
2023/06/28 08:51:20;;;;;;;;;;;;;;;;;;5085244;28;19913;-66
2023/06/28 08:53:46;;;;;;;;;;;;;;;;;;5087738;28;19999;-65
2023/06/28 08:56:13;;;;;;;;;;;;;;;;;;5087517;28;20452;-67
2023/06/28 08:58:39;;;;;;;;;;;;;;;;;;5089297;28;20285;-67
2023/06/28 09:02:30;;;;;;;;;;;;;;;;;;5089789;27;19922;-67
2023/06/28 09:04:56;;;;;;;;;;;;;;;;;;5090805;28;19923;-67
2023/06/28 09:09:55;;;;;;;;;;;;;;;;;;5089074;27;19927;-66
2023/06/28 09:12:21;;;;;;;;;;;;;;;;;;5088043;28;19921;-64
2023/06/28 09:14:47;;;;;;;;;;;;;;;;;;5089759;28;19961;-64
2023/06/28 09:17:13;;;;;;;;;;;;;;;;;;5089370;28;19916;-65
2023/06/28 09:19:42;;;;;;;;;;;;;;;;;;5093165;28;19912;-65
2023/06/28 09:22:08;;;;;;;;;;;;;;;;;;5090036;28;19917;-65
2023/06/28 09:24:34;;;;;;;;;;;;;;;;;;5090045;28;19951;-65
2023/06/28 09:27:00;;;;;;;;;;;;;;;;;;5089660;28;19912;-67
2023/06/28 09:29:26;;;;;;;;;;;;;;;;;;5089718;28;19920;-66
2023/06/28 09:31:52;;;;;;;;;;;;;;;;;;5089058;28;19962;-66
2023/06/28 09:34:18;;;;;;;;;;;;;;;;;;5089914;28;19912;-67
2023/06/28 09:36:44;;;;;;;;;;;;;;;;;;5089684;28;19969;-66
2023/06/28 09:39:10;;;;;;;;;;;;;;;;;;5088207;28;19916;-66
2023/06/28 09:41:36;;;;;;;;;;;;;;;;;;5088446;28;19919;-66
2023/06/28 09:44:02;;;;;;;;;;;;;;;;;;5088114;28;19908;-67
2023/06/28 09:46:28;;;;;;;;;;;;;;;;;;5087870;28;19912;-66
2023/06/28 09:48:56;;;;;;;;;;;;;;;;;;5088098;28;19950;-66
2023/06/28 09:51:22;;;;;;;;;;;;;;;;;;5088428;28;19913;-66
2023/06/28 09:53:49;;;;;;;;;;;;;;;;;;5086680;28;20406;-65
2023/06/28 09:56:15;;;;;;;;;;;;;;;;;;5086725;28;20323;-66
2023/06/28 09:58:41;;;;;;;;;;;;;;;;;;5086663;28;19908;-66
2023/06/28 10:01:07;;;;;;;;;;;;;;;;;;5088062;28;19908;-67
2023/06/28 10:03:33;;;;;;;;;;;;;;;;;;5086405;28;20339;-66
2023/06/28 10:05:59;;;;;;;;;;;;;;;;;;5089013;28;19912;-66
2023/06/28 10:08:25;;;;;;;;;;;;;;;;;;5087255;28;19955;-67
2023/06/28 10:10:50;;;;;;;;;;;;;;;;;;5088644;28;19908;-66
2023/06/28 10:13:16;;;;;;;;;;;;;;;;;;5087859;28;19909;-66
2023/06/28 10:15:42;;;;;;;;;;;;;;;;;;5089265;28;19991;-66
2023/06/28 10:18:08;;;;;;;;;;;;;;;;;;5089352;28;19915;-65
2023/06/28 10:20:37;;;;;;;;;;;;;;;;;;5077820;28;20404;-67
2023/06/28 10:23:03;;;;;;;;;;;;;;;;;;5072526;28;19913;-68
2023/06/28 10:25:29;;;;;;;;;;;;;;;;;;5064857;28;19916;-68
2023/06/28 10:27:55;;;;;;;;;;;;;;;;;;5073064;28;20038;-67
2023/06/28 10:30:21;;;;;;;;;;;;;;;;;;5072983;28;20015;-67
2023/06/28 10:32:47;;;;;;;;;;;;;;;;;;5072496;28;19913;-67
2023/06/28 10:35:16;;;;;;;;;;;;;;;;;;5073968;28;19934;-67
2023/06/28 10:37:42;;;;;;;;;;;;;;;;;;5072297;28;20356;-67
2023/06/28 10:40:09;;;;;;;;;;;;;;;;;;5072420;28;19913;-68
2023/06/28 10:42:35;;;;;;;;;;;;;;;;;;5071733;28;19930;-67
2023/06/28 10:45:01;;;;;;;;;;;;;;;;;;5072560;28;19913;-68
2023/06/28 10:47:27;;;;;;;;;;;;;;;;;;5072900;28;19962;-68
2023/06/28 10:49:53;;;;;;;;;;;;;;;;;;5071633;28;20207;-68
2023/06/28 10:52:19;;;;;;;;;;;;;;;;;;5082566;28;19915;-68
2023/06/28 10:54:45;;;;;;;;;;;;;;;;;;5072639;28;19959;-67
2023/06/28 10:57:11;;;;;;;;;;;;;;;;;;5073656;28;19934;-69
2023/06/28 10:59:37;;;;;;;;;;;;;;;;;;5072095;28;19913;-70
2023/06/28 11:02:03;;;;;;;;;;;;;;;;;;5073513;28;19909;-69
2023/06/28 11:04:29;;;;;;;;;;;;;;;;;;5071836;28;20011;-67
2023/06/28 11:06:55;;;;;;;;;;;;;;;;;;5072554;28;19935;-66
2023/06/28 11:09:21;;;;;;;;;;;;;;;;;;5072269;28;19920;-66
2023/06/28 11:11:48;;;;;;;;;;;;;;;;;;5072571;28;19913;-71
2023/06/28 11:14:14;;;;;;;;;;;;;;;;;;5068140;28;19912;-71
2023/06/28 11:16:40;;;;;;;;;;;;;;;;;;5073469;28;19909;-72
2023/06/28 11:19:06;;;;;;;;;;;;;;;;;;5073583;28;20008;-72
2023/06/28 11:21:32;;;;;;;;;;;;;;;;;;5075398;28;19915;-72
2023/06/28 11:23:58;;;;;;;;;;;;;;;;;;5075344;28;19908;-71
2023/06/28 11:26:24;;;;;;;;;;;;;;;;;;5074889;28;19909;-69
2023/06/28 11:28:50;;;;;;;;;;;;;;;;;;5075164;28;20357;-71
2023/06/28 11:31:16;;;;;;;;;;;;;;;;;;5074389;28;19947;-71
2023/06/28 11:33:42;;;;;;;;;;;;;;;;;;5074646;28;19913;-71
2023/06/28 11:36:08;;;;;;;;;;;;;;;;;;5075019;28;20284;-71
2023/06/28 11:38:34;;;;;;;;;;;;;;;;;;5075006;28;19912;-69
2023/06/28 11:41:00;;;;;;;;;;;;;;;;;;5074633;28;19923;-69
2023/06/28 11:43:26;;;;;;;;;;;;;;;;;;5075038;28;19908;-69
2023/06/28 11:45:52;;;;;;;;;;;;;;;;;;5074934;28;19962;-71
2023/06/28 11:48:18;;;;;;;;;;;;;;;;;;5074447;28;19939;-69
2023/06/28 11:50:44;;;;;;;;;;;;;;;;;;5074805;28;19917;-69
2023/06/28 11:53:10;;;;;;;;;;;;;;;;;;5074831;28;19909;-69
2023/06/28 11:55:35;;;;;;;;;;;;;;;;;;5074504;28;19915;-69
2023/06/28 11:58:02;;;;;;;;;;;;;;;;;;5075228;28;20341;-69
2023/06/28 12:00:27;;;;;;;;;;;;;;;;;;5074687;28;19916;-69
2023/06/28 12:02:53;;;;;;;;;;;;;;;;;;5074277;28;19908;-69
2023/06/28 12:05:19;;;;;;;;;;;;;;;;;;5074519;28;19915;-69
2023/06/28 12:07:48;;;;;;;;;;;;;;;;;;5074283;28;19920;-69
2023/06/28 12:10:16;;;;;;;;;;;;;;;;;;5060194;28;19923;-69
2023/06/28 12:12:42;;;;;;;;;;;;;;;;;;5074298;28;20373;-69
2023/06/28 12:15:08;;;;;;;;;;;;;;;;;;5073747;28;19954;-70
2023/06/28 12:17:34;;;;;;;;;;;;;;;;;;5073974;28;19954;-70
2023/06/28 12:20:00;;;;;;;;;;;;;;;;;;5074194;28;19908;-70
2023/06/28 12:22:26;;;;;;;;;;;;;;;;;;5073812;28;19915;-70
2023/06/28 12:24:52;;;;;;;;;;;;;;;;;;5074133;28;19909;-70
2023/06/28 12:27:18;;;;;;;;;;;;;;;;;;5072834;28;19908;-70
2023/06/28 12:29:44;;;;;;;;;;;;;;;;;;5073797;28;19924;-70
2023/06/28 12:32:11;;;;;;;;;;;;;;;;;;5074197;28;19908;-70
2023/06/28 12:34:38;;;;;;;;;;;;;;;;;;5074116;28;19908;-70
2023/06/28 12:37:04;;;;;;;;;;;;;;;;;;5071147;28;19908;-70
2023/06/28 12:39:30;;;;;;;;;;;;;;;;;;5072661;28;19915;-70
2023/06/28 12:41:56;;;;;;;;;;;;;;;;;;5074004;28;20284;-70
2023/06/28 12:44:22;;;;;;;;;;;;;;;;;;5073205;28;20245;-70
2023/06/28 12:46:48;;;;;;;;;;;;;;;;;;5072622;28;20340;-70
2023/06/28 12:49:13;;;;;;;;;;;;;;;;;;5073734;28;20327;-69
2023/06/28 12:51:45;;;;;;;;;;;;;;;;;;5073437;28;20262;-69
2023/06/28 12:54:14;;;;;;;;;;;;;;;;;;5073778;28;19954;-70
2023/06/28 12:56:40;;;;;;;;;;;;;;;;;;5073715;28;19915;-69
2023/06/28 12:59:06;;;;;;;;;;;;;;;;;;5073298;28;19909;-69
2023/06/28 13:01:33;;;;;;;;;;;;;;;;;;5073766;28;19944;-69
2023/06/28 13:03:59;;;;;;;;;;;;;;;;;;5073728;28;19915;-70
2023/06/28 13:06:25;;;;;;;;;;;;;;;;;;5073304;28;19912;-70
2023/06/28 13:08:52;;;;;;;;;;;;;;;;;;5073342;28;20015;-70
2023/06/28 13:11:18;;;;;;;;;;;;;;;;;;5072026;28;19912;-70
2023/06/28 13:13:44;;;;;;;;;;;;;;;;;;5073687;28;20008;-70
2023/06/28 13:16:10;;;;;;;;;;;;;;;;;;5073670;28;20007;-69
2023/06/28 13:18:36;;;;;;;;;;;;;;;;;;5072009;28;19908;-70
2023/06/28 13:21:02;;;;;;;;;;;;;;;;;;5073558;28;19916;-69
2023/06/28 13:23:27;;;;;;;;;;;;;;;;;;5073356;28;19947;-70
2023/06/28 13:25:54;;;;;;;;;;;;;;;;;;5073123;28;20356;-69
2023/06/28 13:28:19;;;;;;;;;;;;;;;;;;5073445;28;19916;-70
2023/06/28 13:30:45;;;;;;;;;;;;;;;;;;5073632;28;20384;-70
2023/06/28 13:33:11;;;;;;;;;;;;;;;;;;5073186;28;20379;-70
2023/06/28 13:35:37;;;;;;;;;;;;;;;;;;5073437;28;19908;-69
2023/06/28 13:38:03;;;;;;;;;;;;;;;;;;5073469;28;19916;-69
2023/06/28 13:40:29;;;;;;;;;;;;;;;;;;5072943;28;19920;-69
2023/06/28 13:42:55;;;;;;;;;;;;;;;;;;5073319;28;19912;-70
2023/06/28 13:45:21;;;;;;;;;;;;;;;;;;5073170;28;19908;-69
2023/06/28 13:47:47;;;;;;;;;;;;;;;;;;5072977;28;19943;-69
2023/06/28 13:50:13;;;;;;;;;;;;;;;;;;5073140;28;19924;-69
2023/06/28 13:52:39;;;;;;;;;;;;;;;;;;5073425;28;19909;-69
2023/06/28 13:55:05;;;;;;;;;;;;;;;;;;5073976;28;19936;-70
2023/06/28 13:57:31;;;;;;;;;;;;;;;;;;5076886;28;19999;-70
2023/06/28 13:59:57;;;;;;;;;;;;;;;;;;5077162;28;20406;-70
2023/06/28 14:02:23;;;;;;;;;;;;;;;;;;5076473;28;19912;-71
2023/06/28 14:04:49;;;;;;;;;;;;;;;;;;5076863;28;19909;-69
2023/06/28 14:07:15;;;;;;;;;;;;;;;;;;5076763;28;19919;-69
2023/06/28 14:09:43;;;;;;;;;;;;;;;;;;5075959;28;19920;-69
2023/06/28 14:12:09;;;;;;;;;;;;;;;;;;5075366;28;19916;-69
2023/06/28 14:14:35;;;;;;;;;;;;;;;;;;5076227;28;19912;-70
2023/06/28 14:17:01;;;;;;;;;;;;;;;;;;5076536;28;20266;-69
2023/06/28 14:19:28;;;;;;;;;;;;;;;;;;5076493;28;19934;-69
2023/06/28 14:21:54;;;;;;;;;;;;;;;;;;5076053;28;20387;-69
2023/06/28 14:24:21;;;;;;;;;;;;;;;;;;5075239;28;20352;-69
2023/06/28 14:26:52;;;;;;;;;;;;;;;;;;5076622;28;20319;-69
2023/06/28 14:29:18;;;;;;;;;;;;;;;;;;5075874;28;19921;-69
2023/06/28 14:31:44;;;;;;;;;;;;;;;;;;5076345;28;20374;-70
2023/06/28 14:34:09;;;;;;;;;;;;;;;;;;5075019;28;20280;-69
2023/06/28 14:36:35;;;;;;;;;;;;;;;;;;5075900;28;20254;-69
2023/06/28 14:39:01;;;;;;;;;;;;;;;;;;5076140;28;20379;-69
2023/06/28 14:41:28;;;;;;;;;;;;;;;;;;5076102;28;19908;-69
2023/06/28 14:43:55;;;;;;;;;;;;;;;;;;5075829;28;19912;-69
2023/06/28 14:46:21;;;;;;;;;;;;;;;;;;5075988;28;19909;-70
2023/06/28 14:48:47;;;;;;;;;;;;;;;;;;5075876;28;19923;-70
2023/06/28 14:51:13;;;;;;;;;;;;;;;;;;5075658;28;19909;-69
2023/06/28 14:53:39;;;;;;;;;;;;;;;;;;5075903;28;19909;-70
2023/06/28 14:56:05;;;;;;;;;;;;;;;;;;5074755;28;19999;-70
2023/06/28 14:58:31;;;;;;;;;;;;;;;;;;5075545;28;19909;-69
2023/06/28 15:00:57;;;;;;;;;;;;;;;;;;5075979;28;19962;-70
2023/06/28 15:03:22;;;;;;;;;;;;;;;;;;5074579;28;19999;-70
2023/06/28 15:05:48;;;;;;;;;;;;;;;;;;5075381;28;19909;-70
2023/06/28 15:08:14;;;;;;;;;;;;;;;;;;5075488;28;19947;-70
2023/06/28 15:10:40;;;;;;;;;;;;;;;;;;5075931;28;19909;-70
2023/06/28 15:13:06;;;;;;;;;;;;;;;;;;5075307;28;19908;-69
2023/06/28 15:15:33;;;;;;;;;;;;;;;;;;5075581;28;19909;-70
2023/06/28 15:17:59;;;;;;;;;;;;;;;;;;5075158;28;19908;-70
2023/06/28 15:20:25;;;;;;;;;;;;;;;;;;5075454;28;19912;-70
2023/06/28 15:22:50;;;;;;;;;;;;;;;;;;5075481;28;19909;-70
2023/06/28 15:25:16;;;;;;;;;;;;;;;;;;5074977;28;19969;-70
2023/06/28 15:27:42;;;;;;;;;;;;;;;;;;5075286;28;19912;-71
2023/06/28 15:30:08;;;;;;;;;;;;;;;;;;5075344;28;19912;-70
2023/06/28 15:32:34;;;;;;;;;;;;;;;;;;5074837;28;19955;-70
2023/06/28 15:35:00;;;;;;;;;;;;;;;;;;5075237;28;19978;-70
2023/06/28 15:37:26;;;;;;;;;;;;;;;;;;5075187;28;19954;-70
2023/06/28 15:39:52;;;;;;;;;;;;;;;;;;5074779;28;19930;-69
2023/06/28 15:42:36;;;;;;;;;;;;;;;;;;5074824;28;19908;-68
2023/06/28 15:45:03;;;;;;;;;;;;;;;;;;5074576;28;19908;-69
2023/06/28 15:47:29;;;;;;;;;;;;;;;;;;5073250;28;19961;-70
2023/06/28 15:49:55;;;;;;;;;;;;;;;;;;5073335;28;19959;-69
2023/06/28 15:52:23;;;;;;;;;;;;;;;;;;5074720;28;19909;-69
2023/06/28 15:54:49;;;;;;;;;;;;;;;;;;5074394;28;20289;-69
2023/06/28 15:57:16;;;;;;;;;;;;;;;;;;5074747;28;19909;-68
2023/06/28 15:59:42;;;;;;;;;;;;;;;;;;5074590;28;19919;-69
2023/06/28 16:02:09;;;;;;;;;;;;;;;;;;5074121;28;19908;-69
2023/06/28 16:04:34;;;;;;;;;;;;;;;;;;5074454;28;19912;-70
2023/06/28 16:07:00;;;;;;;;;;;;;;;;;;5074079;28;19908;-70
2023/06/28 16:09:26;;;;;;;;;;;;;;;;;;5073934;28;19927;-69
2023/06/28 16:11:53;;;;;;;;;;;;;;;;;;5074495;28;19915;-70
2023/06/28 16:14:19;;;;;;;;;;;;;;;;;;5073905;28;20361;-69
2023/06/28 16:19:59;;;;;;;;;;;;;;;;;;5153417;27;20006;-70
2023/06/28 16:22:25;;;;;;;;;;;;;;;;;;5152476;27;20326;-70
2023/06/28 16:24:51;;;;;;;;;;;;;;;;;;5152804;27;19952;-70
2023/06/28 16:27:17;;;;;;;;;;;;;;;;;;5152760;27;19912;-69
2023/06/28 16:29:43;;;;;;;;;;;;;;;;;;5152347;27;19960;-69
2023/06/28 16:32:09;;;;;;;;;;;;;;;;;;5134180;27;19998;-69
2023/06/28 16:34:35;;;;;;;;;;;;;;;;;;5152616;27;19915;-69
2023/06/28 16:37:01;;;;;;;;;;;;;;;;;;5152191;27;20351;-69
2023/06/28 16:39:27;;;;;;;;;;;;;;;;;;5133914;27;20291;-71
2023/06/28 16:41:53;;;;;;;;;;;;;;;;;;5152465;27;20279;-71
2023/06/28 16:45:46;;;;;;;;;;;;;;;;;;5153174;27;20386;-69
2023/06/28 16:48:12;;;;;;;;;;;;;;;;;;5153092;27;19912;-68
2023/06/28 16:50:38;;;;;;;;;;;;;;;;;;5152346;27;20048;-69
2023/06/28 16:53:04;;;;;;;;;;;;;;;;;;5134149;27;19987;-68
2023/06/28 16:56:24;;;;;;;;;;;;;;;;;;5111434;27;19916;-68
2023/06/28 17:02:32;;;;;;;;;;;;;;;;;;5091499;27;19916;-68
2023/06/28 17:04:58;;;;;;;;;;;;;;;;;;5089644;28;19912;-69
2023/06/28 17:14:19;;;;;;;;;;;;;;;;;;5091959;27;19916;-69
2023/06/28 17:18:46;;;;;;;;;;;;;;;;;;5152388;27;20006;-70
2023/06/28 17:22:21;;;;;;;;;;;;;;;;;;5091322;27;19916;-69
2023/06/28 17:30:21;;;;;;;;;;;;;;;;;;5091510;27;19917;-69
2023/06/28 17:32:47;;;;;;;;;;;;;;;;;;5090861;28;19919;-69
2023/06/28 17:36:36;;;;;;;;;;;;;;;;;;5091474;27;19923;-68
2023/06/28 17:39:02;;;;;;;;;;;;;;;;;;5089525;28;20008;-69
2023/06/28 17:42:04;;;;;;;;;;;;;;;;;;5152826;27;19912;-70
2023/06/28 17:46:02;;;;;;;;;;;;;;;;;;5090833;27;19916;-68
2023/06/28 17:48:28;;;;;;;;;;;;;;;;;;5091219;28;19921;-69
2023/06/28 17:50:54;;;;;;;;;;;;;;;;;;5091134;28;19913;-69
2023/06/28 17:53:20;;;;;;;;;;;;;;;;;;5090759;28;19999;-68
2023/06/28 17:56:01;;;;;;;;;;;;;;;;;;5091204;27;19919;-69
2023/06/28 17:58:27;;;;;;;;;;;;;;;;;;5091291;28;20391;-69
2023/06/28 18:00:52;;;;;;;;;;;;;;;;;;5090469;28;19908;-69
2023/06/28 18:04:45;;;;;;;;;;;;;;;;;;5111531;27;19919;-70
2023/06/28 18:09:20;;;;;;;;;;;;;;;;;;5152950;27;19950;-70
2023/06/28 18:11:46;;;;;;;;;;;;;;;;;;5134133;27;19911;-69
2023/06/28 18:14:12;;;;;;;;;;;;;;;;;;5152258;27;20300;-70
2023/06/28 18:16:38;;;;;;;;;;;;;;;;;;5152585;27;19907;-68
2023/06/28 18:21:44;;;;;;;;;;;;;;;;;;5111388;27;20376;-69
2023/06/28 18:32:14;;;;;;;;;;;;;;;;;;5174029;27;19915;-70
2023/06/28 18:36:09;;;;;;;;;;;;;;;;;;5152666;27;19937;-69
2023/06/28 18:40:10;;;;;;;;;;;;;;;;;;5111879;27;19912;-69
2023/06/28 18:42:36;;;;;;;;;;;;;;;;;;5111626;28;19955;-69
2023/06/28 18:47:32;;;;;;;;;;;;;;;;;;5091531;27;19923;-70
2023/06/28 18:49:58;;;;;;;;;;;;;;;;;;5091012;28;20281;-70
2023/06/28 18:54:29;;;;;;;;;;;;;;;;;;5071673;28;20311;-70
2023/06/28 18:56:55;;;;;;;;;;;;;;;;;;5070856;28;20007;-68
2023/06/28 18:59:21;;;;;;;;;;;;;;;;;;5071025;28;19913;-69
2023/06/28 19:01:47;;;;;;;;;;;;;;;;;;5070887;28;19991;-69
2023/06/28 19:04:13;;;;;;;;;;;;;;;;;;5070540;28;19909;-70
2023/06/28 19:06:39;;;;;;;;;;;;;;;;;;5070925;28;19919;-69
2023/06/28 19:09:05;;;;;;;;;;;;;;;;;;5070815;28;20012;-69
2023/06/28 19:11:31;;;;;;;;;;;;;;;;;;5070497;28;19915;-69
2023/06/28 19:13:57;;;;;;;;;;;;;;;;;;5070825;28;19920;-68
2023/06/28 19:16:23;;;;;;;;;;;;;;;;;;5070771;28;19960;-70
2023/06/28 19:18:49;;;;;;;;;;;;;;;;;;5070193;28;19920;-69
2023/06/28 19:29:08;;;;;;;;;;;;;;;;;;5091212;27;19919;-68
2023/06/28 19:32:07;;;;;;;;;;;;;;;;;;5090946;27;19912;-68
2023/06/28 19:34:36;;;;;;;;;;;;;;;;;;5091173;28;19995;-71
2023/06/28 19:37:02;;;;;;;;;;;;;;;;;;5091183;28;19915;-70
2023/06/28 19:39:28;;;;;;;;;;;;;;;;;;5090848;28;20003;-71